aviador You're here:

LEJR Decoded Metar

JEREZ in SPAIN
Report Time2017-11-23 22:00:00
UTC Time2017-11-23 22:17:46
Flight Rules vfr VFR
WindCalm
Visibility9999 m
Phenomena:N/A
Clouds:N/A
Expected CloudBase > 3,200 ft AGL from Temp-Dew spread
CeilingNone
Temp15°C (ISA 0)
Dew Point07°C (59% RH)
AAT14.3°C
QNH1020 hPa
Density Alt23 ft
Elevation98 ft
Report Wrong Elevation
Raw Report
LEJR 232200Z 00000KT CAVOK 15/07 Q1020=

Extra information for LEJR:More info

Metar Taf Metar & Taf Last 4 Metars F.Rules Stats Wind Profile Meteogram Temp Stats Airport Information Weather charts Add Link Nearby VenuesMetar ALERT Operation Metar Decoded Social comments